sensor_id;sensor_type;location;lat;lon;timestamp;temperature;humidity
7143;DHT22;3613;48.902;9.204;2023-01-28T00:01:09;1.30;99.90
7143;DHT22;3613;48.902;9.204;2023-01-28T00:03:37;1.30;99.90
7143;DHT22;3613;48.902;9.204;2023-01-28T00:06:09;1.30;99.90
7143;DHT22;3613;48.902;9.204;2023-01-28T00:08:36;1.30;99.90
7143;DHT22;3613;48.902;9.204;2023-01-28T00:11:04;1.30;99.90
7143;DHT22;3613;48.902;9.204;2023-01-28T00:13:33;1.30;99.90
7143;DHT22;3613;48.902;9.204;2023-01-28T00:16:03;1.30;99.90
7143;DHT22;3613;48.902;9.204;2023-01-28T00:18:32;1.30;99.90
7143;DHT22;3613;48.902;9.204;2023-01-28T00:21:00;1.30;99.90
7143;DHT22;3613;48.902;9.204;2023-01-28T00:23:28;1.40;99.90
7143;DHT22;3613;48.902;9.204;2023-01-28T00:25:56;1.30;99.90
7143;DHT22;3613;48.902;9.204;2023-01-28T00:28:24;1.30;99.90
7143;DHT22;3613;48.902;9.204;2023-01-28T00:30:50;1.30;99.90
7143;DHT22;3613;48.902;9.204;2023-01-28T00:33:20;1.20;99.90
7143;DHT22;3613;48.902;9.204;2023-01-28T00:35:59;1.30;99.90
7143;DHT22;3613;48.902;9.204;2023-01-28T00:38:27;1.40;99.90
7143;DHT22;3613;48.902;9.204;2023-01-28T00:40:55;1.30;99.90
7143;DHT22;3613;48.902;9.204;2023-01-28T00:43:31;1.30;99.90
7143;DHT22;3613;48.902;9.204;2023-01-28T00:45:59;1.30;99.90
7143;DHT22;3613;48.902;9.204;2023-01-28T00:48:27;1.30;99.90
7143;DHT22;3613;48.902;9.204;2023-01-28T00:50:52;1.30;99.90
7143;DHT22;3613;48.902;9.204;2023-01-28T00:53:18;1.20;99.90
7143;DHT22;3613;48.902;9.204;2023-01-28T00:55:43;1.20;99.90
7143;DHT22;3613;48.902;9.204;2023-01-28T00:58:09;1.20;99.90
7143;DHT22;3613;48.902;9.204;2023-01-28T01:00:37;1.20;99.90
7143;DHT22;3613;48.902;9.204;2023-01-28T01:03:03;1.10;99.90
7143;DHT22;3613;48.902;9.204;2023-01-28T01:05:28;1.20;99.90
7143;DHT22;3613;48.902;9.204;2023-01-28T01:08:00;1.10;99.90
7143;DHT22;3613;48.902;9.204;2023-01-28T01:10:26;1.20;99.90
7143;DHT22;3613;48.902;9.204;2023-01-28T01:12:51;1.20;99.90
7143;DHT22;3613;48.902;9.204;2023-01-28T01:15:18;1.20;99.90
7143;DHT22;3613;48.902;9.204;2023-01-28T01:17:50;1.20;99.90
7143;DHT22;3613;48.902;9.204;2023-01-28T01:20:22;1.30;99.90
7143;DHT22;3613;48.902;9.204;2023-01-28T01:22:48;1.40;99.90
7143;DHT22;3613;48.902;9.204;2023-01-28T01:25:15;1.30;99.90
7143;DHT22;3613;48.902;9.204;2023-01-28T01:27:42;1.30;99.90
7143;DHT22;3613;48.902;9.204;2023-01-28T01:30:08;1.30;99.90
7143;DHT22;3613;48.902;9.204;2023-01-28T01:32:35;1.30;99.90
7143;DHT22;3613;48.902;9.204;2023-01-28T01:35:02;1.20;99.90
7143;DHT22;3613;48.902;9.204;2023-01-28T01:37:31;1.20;99.90
7143;DHT22;3613;48.902;9.204;2023-01-28T01:39:56;1.20;99.90
7143;DHT22;3613;48.902;9.204;2023-01-28T01:42:26;1.20;99.90
7143;DHT22;3613;48.902;9.204;2023-01-28T01:49:54;1.20;99.90
7143;DHT22;3613;48.902;9.204;2023-01-28T01:52:28;1.20;99.90
7143;DHT22;3613;48.902;9.204;2023-01-28T01:54:58;1.10;99.90
7143;DHT22;3613;48.902;9.204;2023-01-28T01:57:31;1.10;99.90
7143;DHT22;3613;48.902;9.204;2023-01-28T02:00:00;1.20;99.90
7143;DHT22;3613;48.902;9.204;2023-01-28T02:02:45;1.20;99.90
7143;DHT22;3613;48.902;9.204;2023-01-28T02:05:15;1.20;99.90
7143;DHT22;3613;48.902;9.204;2023-01-28T02:07:42;1.20;99.90
7143;DHT22;3613;48.902;9.204;2023-01-28T02:10:14;1.20;99.90
7143;DHT22;3613;48.902;9.204;2023-01-28T02:12:46;1.10;99.90
7143;DHT22;3613;48.902;9.204;2023-01-28T02:15:19;1.10;99.90
7143;DHT22;3613;48.902;9.204;2023-01-28T02:17:46;1.10;99.90
7143;DHT22;3613;48.902;9.204;2023-01-28T02:23:49;1.10;99.90
7143;DHT22;3613;48.902;9.204;2023-01-28T02:26:41;1.20;99.90
7143;DHT22;3613;48.902;9.204;2023-01-28T02:32:13;1.20;99.90
7143;DHT22;3613;48.902;9.204;2023-01-28T02:34:44;1.20;99.90
7143;DHT22;3613;48.902;9.204;2023-01-28T02:37:14;1.20;99.90
7143;DHT22;3613;48.902;9.204;2023-01-28T02:39:48;1.30;99.90
7143;DHT22;3613;48.902;9.204;2023-01-28T02:44:49;1.20;99.90
7143;DHT22;3613;48.902;9.204;2023-01-28T02:47:17;1.20;99.90
7143;DHT22;3613;48.902;9.204;2023-01-28T02:50:12;1.20;99.90
7143;DHT22;3613;48.902;9.204;2023-01-28T03:01:22;1.20;99.90
7143;DHT22;3613;48.902;9.204;2023-01-28T03:04:16;1.10;99.90
7143;DHT22;3613;48.902;9.204;2023-01-28T03:06:47;1.20;99.90
7143;DHT22;3613;48.902;9.204;2023-01-28T03:09:15;1.20;99.90
7143;DHT22;3613;48.902;9.204;2023-01-28T03:11:54;1.20;99.90
7143;DHT22;3613;48.902;9.204;2023-01-28T03:14:41;1.20;99.90
7143;DHT22;3613;48.902;9.204;2023-01-28T03:17:36;1.10;99.90
7143;DHT22;3613;48.902;9.204;2023-01-28T03:20:23;1.20;99.90
7143;DHT22;3613;48.902;9.204;2023-01-28T03:23:13;1.20;99.90
7143;DHT22;3613;48.902;9.204;2023-01-28T03:26:00;1.10;99.90
7143;DHT22;3613;48.902;9.204;2023-01-28T03:28:47;1.20;99.90
7143;DHT22;3613;48.902;9.204;2023-01-28T03:31:34;1.10;99.90
7143;DHT22;3613;48.902;9.204;2023-01-28T03:34:20;1.10;99.90
7143;DHT22;3613;48.902;9.204;2023-01-28T03:37:05;1.10;99.90
7143;DHT22;3613;48.902;9.204;2023-01-28T03:39:31;1.10;99.90
7143;DHT22;3613;48.902;9.204;2023-01-28T03:42:08;1.10;99.90
7143;DHT22;3613;48.902;9.204;2023-01-28T03:44:35;1.10;99.90
7143;DHT22;3613;48.902;9.204;2023-01-28T03:47:20;1.10;99.90
7143;DHT22;3613;48.902;9.204;2023-01-28T03:49:48;1.10;99.90
7143;DHT22;3613;48.902;9.204;2023-01-28T03:52:15;1.20;99.90
7143;DHT22;3613;48.902;9.204;2023-01-28T03:54:43;1.20;99.90
7143;DHT22;3613;48.902;9.204;2023-01-28T03:57:09;1.30;99.90
7143;DHT22;3613;48.902;9.204;2023-01-28T03:59:35;1.30;99.90
7143;DHT22;3613;48.902;9.204;2023-01-28T04:02:01;1.30;99.90
7143;DHT22;3613;48.902;9.204;2023-01-28T04:04:28;1.40;99.90
7143;DHT22;3613;48.902;9.204;2023-01-28T04:06:56;1.40;99.90
7143;DHT22;3613;48.902;9.204;2023-01-28T04:09:25;1.40;99.90
7143;DHT22;3613;48.902;9.204;2023-01-28T04:11:51;1.40;99.90
7143;DHT22;3613;48.902;9.204;2023-01-28T04:14:17;1.40;99.90
7143;DHT22;3613;48.902;9.204;2023-01-28T04:16:43;1.30;99.90
7143;DHT22;3613;48.902;9.204;2023-01-28T04:19:10;1.30;99.90
7143;DHT22;3613;48.902;9.204;2023-01-28T04:21:39;1.30;99.90
7143;DHT22;3613;48.902;9.204;2023-01-28T04:24:05;1.40;99.90
7143;DHT22;3613;48.902;9.204;2023-01-28T04:26:31;1.40;99.90
7143;DHT22;3613;48.902;9.204;2023-01-28T04:28:59;1.40;99.90
7143;DHT22;3613;48.902;9.204;2023-01-28T04:31:24;1.30;99.90
7143;DHT22;3613;48.902;9.204;2023-01-28T04:33:50;4.20;99.90
7143;DHT22;3613;48.902;9.204;2023-01-28T04:36:16;1.30;99.90
7143;DHT22;3613;48.902;9.204;2023-01-28T04:38:41;1.20;99.90
7143;DHT22;3613;48.902;9.204;2023-01-28T04:41:07;1.20;99.90
7143;DHT22;3613;48.902;9.204;2023-01-28T04:43:33;3.60;99.90
7143;DHT22;3613;48.902;9.204;2023-01-28T04:45:58;1.20;99.90
7143;DHT22;3613;48.902;9.204;2023-01-28T04:48:24;1.30;99.90
7143;DHT22;3613;48.902;9.204;2023-01-28T04:50:52;1.30;99.90
7143;DHT22;3613;48.902;9.204;2023-01-28T04:53:20;1.30;99.90
7143;DHT22;3613;48.902;9.204;2023-01-28T04:55:46;1.30;99.90
7143;DHT22;3613;48.902;9.204;2023-01-28T04:58:11;1.30;99.90
7143;DHT22;3613;48.902;9.204;2023-01-28T05:00:37;1.30;99.90
7143;DHT22;3613;48.902;9.204;2023-01-28T05:03:02;1.50;99.90
7143;DHT22;3613;48.902;9.204;2023-01-28T05:05:28;1.30;99.90
7143;DHT22;3613;48.902;9.204;2023-01-28T05:07:57;1.30;99.90
7143;DHT22;3613;48.902;9.204;2023-01-28T05:10:23;1.20;99.90
7143;DHT22;3613;48.902;9.204;2023-01-28T05:12:49;1.30;99.90
7143;DHT22;3613;48.902;9.204;2023-01-28T05:15:16;1.30;99.90
7143;DHT22;3613;48.902;9.204;2023-01-28T05:17:45;1.30;99.90
7143;DHT22;3613;48.902;9.204;2023-01-28T05:20:13;1.20;99.90
7143;DHT22;3613;48.902;9.204;2023-01-28T05:22:41;1.20;99.90
7143;DHT22;3613;48.902;9.204;2023-01-28T05:25:07;1.20;99.90
7143;DHT22;3613;48.902;9.204;2023-01-28T05:27:33;1.20;99.90
7143;DHT22;3613;48.902;9.204;2023-01-28T05:30:02;1.20;99.90
7143;DHT22;3613;48.902;9.204;2023-01-28T05:32:28;1.20;99.90
7143;DHT22;3613;48.902;9.204;2023-01-28T05:34:56;1.50;99.90
7143;DHT22;3613;48.902;9.204;2023-01-28T05:37:24;1.20;99.90
7143;DHT22;3613;48.902;9.204;2023-01-28T05:39:49;1.20;99.90
7143;DHT22;3613;48.902;9.204;2023-01-28T05:42:15;1.20;99.90
7143;DHT22;3613;48.902;9.204;2023-01-28T05:44:42;1.10;99.90
7143;DHT22;3613;48.902;9.204;2023-01-28T05:47:10;1.10;99.90
7143;DHT22;3613;48.902;9.204;2023-01-28T05:49:36;1.10;99.90
7143;DHT22;3613;48.902;9.204;2023-01-28T05:52:04;1.10;99.90
7143;DHT22;3613;48.902;9.204;2023-01-28T05:54:31;1.10;99.90
7143;DHT22;3613;48.902;9.204;2023-01-28T05:56:59;1.10;99.90
7143;DHT22;3613;48.902;9.204;2023-01-28T05:59:25;1.10;99.90
7143;DHT22;3613;48.902;9.204;2023-01-28T06:01:51;1.10;99.90
7143;DHT22;3613;48.902;9.204;2023-01-28T06:04:18;1.10;99.90
7143;DHT22;3613;48.902;9.204;2023-01-28T06:06:44;3.70;99.90
7143;DHT22;3613;48.902;9.204;2023-01-28T06:09:10;1.10;99.90
7143;DHT22;3613;48.902;9.204;2023-01-28T06:11:38;1.10;99.90
7143;DHT22;3613;48.902;9.204;2023-01-28T06:14:06;1.10;99.90
7143;DHT22;3613;48.902;9.204;2023-01-28T06:16:32;1.10;99.90
7143;DHT22;3613;48.902;9.204;2023-01-28T06:18:57;1.10;99.90
7143;DHT22;3613;48.902;9.204;2023-01-28T06:21:23;1.20;99.90
7143;DHT22;3613;48.902;9.204;2023-01-28T06:23:48;1.20;99.90
7143;DHT22;3613;48.902;9.204;2023-01-28T06:26:14;1.20;99.90
7143;DHT22;3613;48.902;9.204;2023-01-28T06:28:39;1.20;99.90
7143;DHT22;3613;48.902;9.204;2023-01-28T06:31:05;2.60;99.90
7143;DHT22;3613;48.902;9.204;2023-01-28T06:33:31;1.30;99.90
7143;DHT22;3613;48.902;9.204;2023-01-28T06:35:57;1.40;99.90
7143;DHT22;3613;48.902;9.204;2023-01-28T06:38:22;1.40;99.90
7143;DHT22;3613;48.902;9.204;2023-01-28T06:40:52;1.30;99.90
7143;DHT22;3613;48.902;9.204;2023-01-28T06:43:20;1.30;99.90
7143;DHT22;3613;48.902;9.204;2023-01-28T06:45:54;1.30;99.90
7143;DHT22;3613;48.902;9.204;2023-01-28T06:48:20;1.30;99.90
7143;DHT22;3613;48.902;9.204;2023-01-28T06:50:46;1.30;99.90
7143;DHT22;3613;48.902;9.204;2023-01-28T06:53:12;1.40;99.90
7143;DHT22;3613;48.902;9.204;2023-01-28T06:55:38;1.30;99.90
7143;DHT22;3613;48.902;9.204;2023-01-28T06:58:04;1.30;99.90
7143;DHT22;3613;48.902;9.204;2023-01-28T07:00:29;1.30;99.90
7143;DHT22;3613;48.902;9.204;2023-01-28T07:02:55;1.30;99.90
7143;DHT22;3613;48.902;9.204;2023-01-28T07:05:21;1.20;99.90
7143;DHT22;3613;48.902;9.204;2023-01-28T07:07:47;1.20;99.90
7143;DHT22;3613;48.902;9.204;2023-01-28T07:10:15;1.10;99.90
7143;DHT22;3613;48.902;9.204;2023-01-28T07:12:45;1.20;99.90
7143;DHT22;3613;48.902;9.204;2023-01-28T07:15:11;1.20;99.90
7143;DHT22;3613;48.902;9.204;2023-01-28T07:17:41;1.20;99.90
7143;DHT22;3613;48.902;9.204;2023-01-28T07:20:09;1.20;99.90
7143;DHT22;3613;48.902;9.204;2023-01-28T07:22:36;1.20;99.90
7143;DHT22;3613;48.902;9.204;2023-01-28T07:25:05;2.10;99.90
7143;DHT22;3613;48.902;9.204;2023-01-28T07:27:31;1.20;99.90
7143;DHT22;3613;48.902;9.204;2023-01-28T07:29:56;1.20;99.90
7143;DHT22;3613;48.902;9.204;2023-01-28T07:32:22;1.20;99.90
7143;DHT22;3613;48.902;9.204;2023-01-28T07:34:48;1.20;99.90
7143;DHT22;3613;48.902;9.204;2023-01-28T07:37:13;1.20;99.90
7143;DHT22;3613;48.902;9.204;2023-01-28T07:39:42;1.70;99.90
7143;DHT22;3613;48.902;9.204;2023-01-28T07:42:07;1.40;99.90
7143;DHT22;3613;48.902;9.204;2023-01-28T07:44:34;2.90;99.90
7143;DHT22;3613;48.902;9.204;2023-01-28T07:47:02;1.50;99.90
7143;DHT22;3613;48.902;9.204;2023-01-28T07:49:28;1.60;99.90
7143;DHT22;3613;48.902;9.204;2023-01-28T07:51:53;1.60;99.90
7143;DHT22;3613;48.902;9.204;2023-01-28T07:54:19;1.60;99.90
7143;DHT22;3613;48.902;9.204;2023-01-28T07:56:45;1.50;99.90
7143;DHT22;3613;48.902;9.204;2023-01-28T07:59:13;1.70;99.90
7143;DHT22;3613;48.902;9.204;2023-01-28T08:01:38;1.90;99.90
7143;DHT22;3613;48.902;9.204;2023-01-28T08:04:04;1.90;99.90
7143;DHT22;3613;48.902;9.204;2023-01-28T08:06:30;1.90;99.90
7143;DHT22;3613;48.902;9.204;2023-01-28T08:09:00;1.90;99.90
7143;DHT22;3613;48.902;9.204;2023-01-28T08:11:25;2.00;99.90
7143;DHT22;3613;48.902;9.204;2023-01-28T08:13:51;2.10;99.90
7143;DHT22;3613;48.902;9.204;2023-01-28T08:16:19;2.10;99.90
7143;DHT22;3613;48.902;9.204;2023-01-28T08:18:45;2.20;99.90
7143;DHT22;3613;48.902;9.204;2023-01-28T08:21:10;2.10;99.90
7143;DHT22;3613;48.902;9.204;2023-01-28T08:23:36;2.10;99.90
7143;DHT22;3613;48.902;9.204;2023-01-28T08:26:05;2.10;99.90
7143;DHT22;3613;48.902;9.204;2023-01-28T08:28:30;2.20;99.90
7143;DHT22;3613;48.902;9.204;2023-01-28T08:30:59;2.20;99.90
7143;DHT22;3613;48.902;9.204;2023-01-28T08:33:25;2.20;99.90
7143;DHT22;3613;48.902;9.204;2023-01-28T08:35:50;2.00;99.90
7143;DHT22;3613;48.902;9.204;2023-01-28T08:38:16;2.00;99.90
7143;DHT22;3613;48.902;9.204;2023-01-28T08:40:45;2.00;99.90
7143;DHT22;3613;48.902;9.204;2023-01-28T08:43:11;2.00;99.90
7143;DHT22;3613;48.902;9.204;2023-01-28T08:45:38;2.20;99.90
7143;DHT22;3613;48.902;9.204;2023-01-28T08:48:05;2.20;99.90
7143;DHT22;3613;48.902;9.204;2023-01-28T08:50:34;2.20;99.90
7143;DHT22;3613;48.902;9.204;2023-01-28T08:53:05;2.30;99.90
7143;DHT22;3613;48.902;9.204;2023-01-28T08:55:33;2.40;99.90
7143;DHT22;3613;48.902;9.204;2023-01-28T08:58:02;2.30;99.90
7143;DHT22;3613;48.902;9.204;2023-01-28T09:00:28;2.20;99.90
7143;DHT22;3613;48.902;9.204;2023-01-28T09:02:54;2.30;99.90
7143;DHT22;3613;48.902;9.204;2023-01-28T09:05:24;2.90;99.90
7143;DHT22;3613;48.902;9.204;2023-01-28T09:07:50;2.50;99.90
7143;DHT22;3613;48.902;9.204;2023-01-28T09:10:16;2.20;99.90
7143;DHT22;3613;48.902;9.204;2023-01-28T09:12:45;2.70;99.90
7143;DHT22;3613;48.902;9.204;2023-01-28T09:15:13;2.80;99.90
7143;DHT22;3613;48.902;9.204;2023-01-28T09:17:39;2.80;99.90
7143;DHT22;3613;48.902;9.204;2023-01-28T09:20:05;2.80;99.90
7143;DHT22;3613;48.902;9.204;2023-01-28T09:22:32;2.60;99.90
7143;DHT22;3613;48.902;9.204;2023-01-28T09:24:57;2.50;99.90
7143;DHT22;3613;48.902;9.204;2023-01-28T09:27:23;2.50;99.90
7143;DHT22;3613;48.902;9.204;2023-01-28T09:29:49;2.60;99.90
7143;DHT22;3613;48.902;9.204;2023-01-28T09:32:14;2.70;99.90
7143;DHT22;3613;48.902;9.204;2023-01-28T09:34:40;2.70;99.90
7143;DHT22;3613;48.902;9.204;2023-01-28T09:37:05;2.80;99.90
7143;DHT22;3613;48.902;9.204;2023-01-28T09:39:31;2.70;99.90
7143;DHT22;3613;48.902;9.204;2023-01-28T09:47:37;2.80;99.90
7143;DHT22;3613;48.902;9.204;2023-01-28T09:50:07;2.70;99.90
7143;DHT22;3613;48.902;9.204;2023-01-28T09:52:38;2.70;99.90
7143;DHT22;3613;48.902;9.204;2023-01-28T09:55:28;2.80;99.90
7143;DHT22;3613;48.902;9.204;2023-01-28T09:57:54;2.70;99.90
7143;DHT22;3613;48.902;9.204;2023-01-28T10:00:25;2.70;99.90
7143;DHT22;3613;48.902;9.204;2023-01-28T10:17:34;2.70;99.90
7143;DHT22;3613;48.902;9.204;2023-01-28T10:20:06;2.70;99.90
7143;DHT22;3613;48.902;9.204;2023-01-28T10:23:06;2.80;99.90
7143;DHT22;3613;48.902;9.204;2023-01-28T10:25:33;2.80;99.90
7143;DHT22;3613;48.902;9.204;2023-01-28T10:28:00;2.80;99.90
7143;DHT22;3613;48.902;9.204;2023-01-28T10:30:29;2.80;99.90
7143;DHT22;3613;48.902;9.204;2023-01-28T10:33:00;2.60;99.90
7143;DHT22;3613;48.902;9.204;2023-01-28T10:35:30;2.60;99.90
7143;DHT22;3613;48.902;9.204;2023-01-28T10:38:01;2.60;99.90
7143;DHT22;3613;48.902;9.204;2023-01-28T10:40:28;2.60;99.90
7143;DHT22;3613;48.902;9.204;2023-01-28T10:42:53;2.70;99.90
7143;DHT22;3613;48.902;9.204;2023-01-28T10:45:22;2.80;99.90
7143;DHT22;3613;48.902;9.204;2023-01-28T10:47:55;3.00;99.90
7143;DHT22;3613;48.902;9.204;2023-01-28T10:50:25;3.30;99.90
7143;DHT22;3613;48.902;9.204;2023-01-28T10:52:59;3.40;99.90
7143;DHT22;3613;48.902;9.204;2023-01-28T10:55:31;3.60;99.90
7143;DHT22;3613;48.902;9.204;2023-01-28T10:58:05;3.60;99.90
7143;DHT22;3613;48.902;9.204;2023-01-28T11:00:38;3.40;99.90
7143;DHT22;3613;48.902;9.204;2023-01-28T11:03:04;3.20;99.90
7143;DHT22;3613;48.902;9.204;2023-01-28T11:05:30;3.10;99.90
7143;DHT22;3613;48.902;9.204;2023-01-28T11:08:14;5.20;99.90
7143;DHT22;3613;48.902;9.204;2023-01-28T11:10:43;3.00;99.90
7143;DHT22;3613;48.902;9.204;2023-01-28T11:13:19;2.90;99.90
7143;DHT22;3613;48.902;9.204;2023-01-28T11:15:55;2.90;99.90
7143;DHT22;3613;48.902;9.204;2023-01-28T11:18:39;2.90;99.90
7143;DHT22;3613;48.902;9.204;2023-01-28T11:21:17;2.80;99.90
7143;DHT22;3613;48.902;9.204;2023-01-28T11:26:21;2.70;99.90
7143;DHT22;3613;48.902;9.204;2023-01-28T11:28:48;2.60;99.90
7143;DHT22;3613;48.902;9.204;2023-01-28T11:31:16;2.60;99.90
7143;DHT22;3613;48.902;9.204;2023-01-28T11:33:48;2.70;99.90
7143;DHT22;3613;48.902;9.204;2023-01-28T11:36:25;2.70;99.90
7143;DHT22;3613;48.902;9.204;2023-01-28T11:38:57;2.60;99.90
7143;DHT22;3613;48.902;9.204;2023-01-28T11:41:30;2.70;99.90
7143;DHT22;3613;48.902;9.204;2023-01-28T11:44:22;2.60;99.90
7143;DHT22;3613;48.902;9.204;2023-01-28T11:47:09;2.50;99.90
7143;DHT22;3613;48.902;9.204;2023-01-28T11:52:57;2.50;99.90
7143;DHT22;3613;48.902;9.204;2023-01-28T11:58:21;2.50;99.90
7143;DHT22;3613;48.902;9.204;2023-01-28T12:01:13;2.50;99.90
7143;DHT22;3613;48.902;9.204;2023-01-28T12:26:32;2.00;99.90
7143;DHT22;3613;48.902;9.204;2023-01-28T12:42:44;1.70;99.90
7143;DHT22;3613;48.902;9.204;2023-01-28T12:44:50;1.60;99.90
7143;DHT22;3613;48.902;9.204;2023-01-28T12:47:33;1.60;99.90
7143;DHT22;3613;48.902;9.204;2023-01-28T12:52:46;1.70;99.90
7143;DHT22;3613;48.902;9.204;2023-01-28T12:55:21;1.60;99.90
7143;DHT22;3613;48.902;9.204;2023-01-28T12:57:52;1.60;99.90
7143;DHT22;3613;48.902;9.204;2023-01-28T13:00:29;1.70;99.90
7143;DHT22;3613;48.902;9.204;2023-01-28T13:03:16;1.70;99.90
7143;DHT22;3613;48.902;9.204;2023-01-28T13:05:49;1.80;99.90
7143;DHT22;3613;48.902;9.204;2023-01-28T13:08:26;1.80;99.90
7143;DHT22;3613;48.902;9.204;2023-01-28T13:10:53;1.70;99.90
7143;DHT22;3613;48.902;9.204;2023-01-28T13:13:26;1.70;99.90
7143;DHT22;3613;48.902;9.204;2023-01-28T13:15:53;1.70;99.90
7143;DHT22;3613;48.902;9.204;2023-01-28T13:31:42;1.80;99.90
7143;DHT22;3613;48.902;9.204;2023-01-28T13:36:55;1.90;99.90
7143;DHT22;3613;48.902;9.204;2023-01-28T13:39:23;1.90;99.90
7143;DHT22;3613;48.902;9.204;2023-01-28T13:46:55;2.70;99.90
7143;DHT22;3613;48.902;9.204;2023-01-28T13:49:39;2.10;99.90
7143;DHT22;3613;48.902;9.204;2023-01-28T13:54:43;2.10;99.90
7143;DHT22;3613;48.902;9.204;2023-01-28T14:00:22;2.10;99.90
7143;DHT22;3613;48.902;9.204;2023-01-28T14:05:33;2.20;99.90
7143;DHT22;3613;48.902;9.204;2023-01-28T14:19:11;2.30;99.90
7143;DHT22;3613;48.902;9.204;2023-01-28T14:21:38;2.30;99.90
7143;DHT22;3613;48.902;9.204;2023-01-28T14:24:14;2.30;99.90
7143;DHT22;3613;48.902;9.204;2023-01-28T14:32:19;2.40;99.90
7143;DHT22;3613;48.902;9.204;2023-01-28T14:34:46;2.30;99.90
7143;DHT22;3613;48.902;9.204;2023-01-28T14:37:15;2.80;99.90
7143;DHT22;3613;48.902;9.204;2023-01-28T14:39:59;2.30;99.90
7143;DHT22;3613;48.902;9.204;2023-01-28T14:42:39;2.30;99.90
7143;DHT22;3613;48.902;9.204;2023-01-28T14:48:25;2.20;99.90
7143;DHT22;3613;48.902;9.204;2023-01-28T14:59:21;3.70;99.90
7143;DHT22;3613;48.902;9.204;2023-01-28T15:01:54;2.30;99.90
7143;DHT22;3613;48.902;9.204;2023-01-28T15:04:30;2.30;99.90
7143;DHT22;3613;48.902;9.204;2023-01-28T15:07:18;2.30;99.90
7143;DHT22;3613;48.902;9.204;2023-01-28T15:09:44;2.20;99.90
7143;DHT22;3613;48.902;9.204;2023-01-28T15:12:10;2.20;99.90
7143;DHT22;3613;48.902;9.204;2023-01-28T15:14:37;2.30;99.90
7143;DHT22;3613;48.902;9.204;2023-01-28T15:17:04;2.20;99.90
7143;DHT22;3613;48.902;9.204;2023-01-28T15:19:34;2.20;99.90
7143;DHT22;3613;48.902;9.204;2023-01-28T15:22:05;2.20;99.90
7143;DHT22;3613;48.902;9.204;2023-01-28T15:24:35;4.30;99.90
7143;DHT22;3613;48.902;9.204;2023-01-28T15:27:03;2.20;99.90
7143;DHT22;3613;48.902;9.204;2023-01-28T15:29:34;2.20;99.90
7143;DHT22;3613;48.902;9.204;2023-01-28T15:32:01;2.20;99.90
7143;DHT22;3613;48.902;9.204;2023-01-28T15:34:28;2.20;99.90
7143;DHT22;3613;48.902;9.204;2023-01-28T15:36:59;2.20;99.90
7143;DHT22;3613;48.902;9.204;2023-01-28T15:39:26;2.20;99.90
7143;DHT22;3613;48.902;9.204;2023-01-28T15:41:59;2.20;99.90
7143;DHT22;3613;48.902;9.204;2023-01-28T15:44:37;2.20;99.90
7143;DHT22;3613;48.902;9.204;2023-01-28T15:47:14;2.20;99.90
7143;DHT22;3613;48.902;9.204;2023-01-28T15:49:43;2.20;99.90
7143;DHT22;3613;48.902;9.204;2023-01-28T15:52:10;2.20;99.90
7143;DHT22;3613;48.902;9.204;2023-01-28T15:54:39;2.10;99.90
7143;DHT22;3613;48.902;9.204;2023-01-28T15:57:24;5.00;99.90
7143;DHT22;3613;48.902;9.204;2023-01-28T16:02:44;2.10;99.90
7143;DHT22;3613;48.902;9.204;2023-01-28T16:07:58;2.10;99.90
7143;DHT22;3613;48.902;9.204;2023-01-28T16:10:29;2.10;99.90
7143;DHT22;3613;48.902;9.204;2023-01-28T16:13:11;2.10;99.90
7143;DHT22;3613;48.902;9.204;2023-01-28T16:15:46;2.00;99.90
7143;DHT22;3613;48.902;9.204;2023-01-28T16:18:42;2.00;99.90
7143;DHT22;3613;48.902;9.204;2023-01-28T16:21:22;1.90;99.90
7143;DHT22;3613;48.902;9.204;2023-01-28T16:26:57;1.90;99.90
7143;DHT22;3613;48.902;9.204;2023-01-28T16:29:27;1.90;99.90
7143;DHT22;3613;48.902;9.204;2023-01-28T16:31:54;1.90;99.90
7143;DHT22;3613;48.902;9.204;2023-01-28T16:34:20;4.10;99.90
7143;DHT22;3613;48.902;9.204;2023-01-28T16:36:46;1.90;99.90
7143;DHT22;3613;48.902;9.204;2023-01-28T16:39:11;1.90;99.90
7143;DHT22;3613;48.902;9.204;2023-01-28T16:41:42;1.90;99.90
7143;DHT22;3613;48.902;9.204;2023-01-28T16:44:12;1.90;99.90
7143;DHT22;3613;48.902;9.204;2023-01-28T16:46:41;1.90;99.90
7143;DHT22;3613;48.902;9.204;2023-01-28T16:49:06;1.90;99.90
7143;DHT22;3613;48.902;9.204;2023-01-28T16:51:32;1.90;99.90
7143;DHT22;3613;48.902;9.204;2023-01-28T16:53:59;1.90;99.90
7143;DHT22;3613;48.902;9.204;2023-01-28T16:56:28;1.90;99.90
7143;DHT22;3613;48.902;9.204;2023-01-28T16:58:54;1.90;99.90
7143;DHT22;3613;48.902;9.204;2023-01-28T17:01:23;1.80;99.90
7143;DHT22;3613;48.902;9.204;2023-01-28T17:03:51;1.80;99.90
7143;DHT22;3613;48.902;9.204;2023-01-28T17:06:18;1.90;99.90
7143;DHT22;3613;48.902;9.204;2023-01-28T17:08:47;1.70;99.90
7143;DHT22;3613;48.902;9.204;2023-01-28T17:11:13;1.70;99.90
7143;DHT22;3613;48.902;9.204;2023-01-28T17:13:39;1.60;99.90
7143;DHT22;3613;48.902;9.204;2023-01-28T17:16:05;4.30;99.90
7143;DHT22;3613;48.902;9.204;2023-01-28T17:18:31;1.50;99.90
7143;DHT22;3613;48.902;9.204;2023-01-28T17:21:04;1.50;99.90
7143;DHT22;3613;48.902;9.204;2023-01-28T17:23:32;1.40;99.90
7143;DHT22;3613;48.902;9.204;2023-01-28T17:26:05;1.40;99.90
7143;DHT22;3613;48.902;9.204;2023-01-28T17:28:31;1.40;99.90
7143;DHT22;3613;48.902;9.204;2023-01-28T17:30:57;1.40;99.90
7143;DHT22;3613;48.902;9.204;2023-01-28T17:33:22;1.40;99.90
7143;DHT22;3613;48.902;9.204;2023-01-28T17:35:48;1.40;99.90
7143;DHT22;3613;48.902;9.204;2023-01-28T17:38:18;1.40;99.90
7143;DHT22;3613;48.902;9.204;2023-01-28T17:40:44;1.30;99.90
7143;DHT22;3613;48.902;9.204;2023-01-28T17:43:13;1.30;99.90
7143;DHT22;3613;48.902;9.204;2023-01-28T17:45:38;1.30;99.90
7143;DHT22;3613;48.902;9.204;2023-01-28T17:48:04;1.40;99.90
7143;DHT22;3613;48.902;9.204;2023-01-28T17:50:30;1.40;99.90
7143;DHT22;3613;48.902;9.204;2023-01-28T17:52:56;1.40;99.90
7143;DHT22;3613;48.902;9.204;2023-01-28T17:55:23;1.50;99.90
7143;DHT22;3613;48.902;9.204;2023-01-28T17:57:51;1.50;99.90
7143;DHT22;3613;48.902;9.204;2023-01-28T18:00:20;1.70;99.90
7143;DHT22;3613;48.902;9.204;2023-01-28T18:02:49;1.50;99.90
7143;DHT22;3613;48.902;9.204;2023-01-28T18:05:17;1.40;99.90
7143;DHT22;3613;48.902;9.204;2023-01-28T18:07:43;1.50;99.90
7143;DHT22;3613;48.902;9.204;2023-01-28T18:10:13;1.80;99.90
7143;DHT22;3613;48.902;9.204;2023-01-28T18:12:39;1.40;99.90
7143;DHT22;3613;48.902;9.204;2023-01-28T18:15:06;1.40;99.90
7143;DHT22;3613;48.902;9.204;2023-01-28T18:17:34;1.50;99.90
7143;DHT22;3613;48.902;9.204;2023-01-28T18:19:59;1.50;99.90
7143;DHT22;3613;48.902;9.204;2023-01-28T18:22:25;1.40;99.90
7143;DHT22;3613;48.902;9.204;2023-01-28T18:24:53;1.50;99.90
7143;DHT22;3613;48.902;9.204;2023-01-28T18:27:19;1.50;99.90
7143;DHT22;3613;48.902;9.204;2023-01-28T18:29:45;1.50;99.90
7143;DHT22;3613;48.902;9.204;2023-01-28T18:32:14;1.50;99.90
7143;DHT22;3613;48.902;9.204;2023-01-28T18:34:42;2.90;99.90
7143;DHT22;3613;48.902;9.204;2023-01-28T18:37:08;1.50;99.90
7143;DHT22;3613;48.902;9.204;2023-01-28T18:39:34;1.60;99.90
7143;DHT22;3613;48.902;9.204;2023-01-28T18:42:00;1.60;99.90
7143;DHT22;3613;48.902;9.204;2023-01-28T18:44:29;1.50;99.90
7143;DHT22;3613;48.902;9.204;2023-01-28T18:46:55;1.50;99.90
7143;DHT22;3613;48.902;9.204;2023-01-28T18:49:25;1.50;99.90
7143;DHT22;3613;48.902;9.204;2023-01-28T18:51:50;1.50;99.90
7143;DHT22;3613;48.902;9.204;2023-01-28T18:54:16;1.50;99.90
7143;DHT22;3613;48.902;9.204;2023-01-28T18:56:42;1.50;99.90
7143;DHT22;3613;48.902;9.204;2023-01-28T18:59:12;1.50;99.90
7143;DHT22;3613;48.902;9.204;2023-01-28T19:01:41;1.50;99.90
7143;DHT22;3613;48.902;9.204;2023-01-28T19:04:10;1.40;99.90
7143;DHT22;3613;48.902;9.204;2023-01-28T19:06:35;1.30;99.90
7143;DHT22;3613;48.902;9.204;2023-01-28T19:09:03;1.30;99.90